createdAt,value
2019-01-08T00:00:41.698Z,10.50
2019-01-08T00:03:10.168Z,10.97
2019-01-08T00:05:38.605Z,11.03
2019-01-08T00:08:07.058Z,11.10
2019-01-08T00:10:37.032Z,10.03
2019-01-08T00:13:05.501Z,9.60
2019-01-08T00:15:33.938Z,11.23
2019-01-08T00:18:02.391Z,9.17
2019-01-08T00:20:30.821Z,10.47
2019-01-08T00:22:59.291Z,9.70
2019-01-08T00:25:27.738Z,9.80
2019-01-08T00:27:56.198Z,10.33
2019-01-08T00:30:24.638Z,10.03
2019-01-08T00:32:53.089Z,9.37
2019-01-08T00:35:21.532Z,9.00
2019-01-08T00:37:49.984Z,9.27
2019-01-08T00:40:18.414Z,9.10
2019-01-08T00:42:46.928Z,9.03
2019-01-08T00:45:15.374Z,7.97
2019-01-08T00:47:43.822Z,7.30
2019-01-08T00:50:12.298Z,8.40
2019-01-08T00:52:40.723Z,7.53
2019-01-08T00:55:09.196Z,8.97
2019-01-08T00:57:37.686Z,8.30
2019-01-08T01:00:09.047Z,8.00
2019-01-08T01:02:37.476Z,8.53
2019-01-08T01:05:06.270Z,8.23
2019-01-08T01:07:34.714Z,7.73
2019-01-08T01:10:03.155Z,6.67
2019-01-08T01:12:31.594Z,7.53
2019-01-08T01:15:00.143Z,7.20
2019-01-08T01:17:28.581Z,7.00
2019-01-08T01:19:57.238Z,6.17
2019-01-08T01:22:25.748Z,6.53
2019-01-08T01:24:54.298Z,6.93
2019-01-08T01:27:22.755Z,7.73
2019-01-08T01:29:51.220Z,6.73
2019-01-08T01:32:19.646Z,6.27
2019-01-08T01:34:48.144Z,5.20
2019-01-08T01:37:16.614Z,5.77
2019-01-08T01:39:45.027Z,5.63
2019-01-08T01:42:13.465Z,6.03
2019-01-08T01:44:41.907Z,7.53
2019-01-08T01:47:10.354Z,6.57
2019-01-08T01:49:38.809Z,6.87
2019-01-08T01:52:07.308Z,6.27
2019-01-08T01:54:35.756Z,6.00
2019-01-08T01:57:04.223Z,6.37
2019-01-08T01:59:32.673Z,6.50
2019-01-08T02:02:01.107Z,6.50
2019-01-08T02:04:29.554Z,7.00
2019-01-08T02:06:57.999Z,6.50
2019-01-08T02:09:26.459Z,7.00
2019-01-08T02:11:54.912Z,6.87
2019-01-08T02:14:23.506Z,5.97
2019-01-08T02:16:51.929Z,6.57
2019-01-08T02:19:20.359Z,6.70
2019-01-08T02:21:48.811Z,6.87
2019-01-08T02:24:17.251Z,7.43
2019-01-08T02:26:45.708Z,7.17
2019-01-08T02:29:16.578Z,6.87
2019-01-08T02:31:44.371Z,6.93
2019-01-08T02:34:12.795Z,7.23
2019-01-08T02:36:41.253Z,7.73
2019-01-08T02:39:09.699Z,7.37
2019-01-08T02:41:38.183Z,7.53
2019-01-08T02:44:06.793Z,6.60
2019-01-08T02:46:35.713Z,7.13
2019-01-08T02:49:04.380Z,7.43
2019-01-08T02:51:32.831Z,7.10
2019-01-08T02:54:01.259Z,7.17
2019-01-08T02:56:29.719Z,7.40
2019-01-08T02:58:58.152Z,6.37
2019-01-08T03:01:26.589Z,7.30
2019-01-08T03:03:55.018Z,6.27
2019-01-08T03:06:23.485Z,6.37
2019-01-08T03:08:51.909Z,5.70
2019-01-08T03:11:20.361Z,6.47
2019-01-08T03:13:48.793Z,6.27
2019-01-08T03:16:17.288Z,6.50
2019-01-08T03:18:45.680Z,6.43
2019-01-08T03:21:14.140Z,5.97
2019-01-08T03:23:42.561Z,6.40
2019-01-08T03:26:11.041Z,6.57
2019-01-08T03:28:39.494Z,6.07
2019-01-08T03:31:07.991Z,6.23
2019-01-08T03:33:36.414Z,5.60
2019-01-08T03:36:04.860Z,5.83
2019-01-08T03:38:33.316Z,5.87
2019-01-08T03:41:02.152Z,6.43
2019-01-08T03:43:31.493Z,6.03
2019-01-08T03:45:59.915Z,5.87
2019-01-08T03:48:28.644Z,6.70
2019-01-08T03:50:57.098Z,5.70
2019-01-08T03:53:25.561Z,5.67
2019-01-08T03:55:54.035Z,6.30
2019-01-08T03:58:22.827Z,5.70
2019-01-08T04:00:51.258Z,5.33
2019-01-08T04:03:19.694Z,5.03
2019-01-08T04:05:48.119Z,5.43
2019-01-08T04:08:16.595Z,5.50
2019-01-08T04:10:45.017Z,6.60
2019-01-08T04:13:13.506Z,5.87
2019-01-08T04:15:41.942Z,6.50
2019-01-08T04:18:10.396Z,6.20
2019-01-08T04:20:38.825Z,5.57
2019-01-08T04:23:07.266Z,5.00
2019-01-08T04:25:35.746Z,5.60
2019-01-08T04:28:04.199Z,5.20
2019-01-08T04:30:32.624Z,4.90
2019-01-08T04:33:01.101Z,5.20
2019-01-08T04:35:29.542Z,6.12
2019-01-08T04:37:58.012Z,5.30
2019-01-08T04:40:26.448Z,5.03
2019-01-08T04:42:54.910Z,5.33
2019-01-08T04:45:23.342Z,4.87
2019-01-08T04:47:51.799Z,5.27
2019-01-08T04:50:20.255Z,4.95
2019-01-08T04:52:48.711Z,5.20
2019-01-08T04:55:17.188Z,4.80
2019-01-08T04:57:45.623Z,4.13
2019-01-08T05:00:14.102Z,4.72
2019-01-08T05:02:42.558Z,4.50
2019-01-08T05:05:11.016Z,3.93
2019-01-08T05:07:39.459Z,4.10
2019-01-08T05:10:07.940Z,4.15
2019-01-08T05:12:36.391Z,4.30
2019-01-08T05:15:05.684Z,4.53
2019-01-08T05:17:34.125Z,3.90
2019-01-08T05:20:02.581Z,3.83
2019-01-08T05:22:31.039Z,4.00
2019-01-08T05:24:59.493Z,5.53
2019-01-08T05:27:27.923Z,3.63
2019-01-08T05:29:56.377Z,4.07
2019-01-08T05:32:24.808Z,3.27
2019-01-08T05:34:53.280Z,3.72
2019-01-08T05:37:21.719Z,4.13
2019-01-08T05:39:50.193Z,3.27
2019-01-08T05:42:18.641Z,4.43
2019-01-08T05:44:47.115Z,4.27
2019-01-08T05:47:16.533Z,4.28
2019-01-08T05:49:45.281Z,3.90
2019-01-08T05:52:13.709Z,3.53
2019-01-08T05:54:42.165Z,4.33
2019-01-08T05:57:10.595Z,4.20
2019-01-08T05:59:39.051Z,4.07
2019-01-08T06:02:07.486Z,4.60
2019-01-08T06:04:35.953Z,4.33
2019-01-08T06:07:04.375Z,4.47
2019-01-08T06:09:32.830Z,4.27
2019-01-08T06:12:01.287Z,4.10
2019-01-08T06:14:29.740Z,4.00
2019-01-08T06:16:58.175Z,3.80
2019-01-08T06:19:26.615Z,3.30
2019-01-08T06:21:55.068Z,3.90
2019-01-08T06:24:23.502Z,3.40
2019-01-08T06:26:51.959Z,3.70
2019-01-08T06:29:20.425Z,3.67
2019-01-08T06:31:48.895Z,4.10
2019-01-08T06:34:17.320Z,3.27
2019-01-08T06:36:46.139Z,3.40
2019-01-08T06:39:14.590Z,3.20
2019-01-08T06:41:44.282Z,5.03
2019-01-08T06:44:12.859Z,4.63
2019-01-08T06:46:43.101Z,4.10
2019-01-08T06:49:11.463Z,4.03
2019-01-08T06:51:39.929Z,4.00
2019-01-08T06:54:08.367Z,3.80
2019-01-08T06:56:36.824Z,4.27
2019-01-08T06:59:05.247Z,3.50
2019-01-08T07:01:33.744Z,3.37
2019-01-08T07:04:02.181Z,3.10
2019-01-08T07:06:30.628Z,3.57
2019-01-08T07:08:59.059Z,3.83
2019-01-08T07:11:27.516Z,4.00
2019-01-08T07:13:55.945Z,4.70
2019-01-08T07:16:24.395Z,3.47
2019-01-08T07:18:52.885Z,3.57
2019-01-08T07:21:21.334Z,3.17
2019-01-08T07:23:49.775Z,3.50
2019-01-08T07:26:18.224Z,4.00
2019-01-08T07:28:46.657Z,3.33
2019-01-08T07:31:15.099Z,4.57
2019-01-08T07:33:43.572Z,3.57
2019-01-08T07:36:12.012Z,3.90
2019-01-08T07:38:40.461Z,3.27
2019-01-08T07:41:08.902Z,3.70
2019-01-08T07:43:37.364Z,4.43
2019-01-08T07:46:05.810Z,2.93
2019-01-08T07:48:34.284Z,4.40
2019-01-08T07:51:02.718Z,3.50
2019-01-08T07:53:31.183Z,3.67
2019-01-08T07:55:59.616Z,3.23
2019-01-08T07:58:28.062Z,3.80
2019-01-08T08:00:56.490Z,5.07
2019-01-08T08:03:24.965Z,3.00
2019-01-08T08:05:53.432Z,3.20
2019-01-08T08:08:21.895Z,3.80
2019-01-08T08:10:50.320Z,2.90
2019-01-08T08:13:18.758Z,3.20
2019-01-08T08:15:47.184Z,3.13
2019-01-08T08:18:15.674Z,3.90
2019-01-08T08:20:44.104Z,3.27
2019-01-08T08:23:12.554Z,3.80
2019-01-08T08:25:41.029Z,3.50
2019-01-08T08:28:09.450Z,4.63
2019-01-08T08:30:38.015Z,3.50
2019-01-08T08:33:06.433Z,3.27
2019-01-08T08:35:34.895Z,3.33
2019-01-08T08:38:03.338Z,3.70
2019-01-08T08:40:31.810Z,3.27
2019-01-08T08:43:00.237Z,3.53
2019-01-08T08:45:30.504Z,2.87
2019-01-08T08:47:59.173Z,3.50
2019-01-08T08:50:27.610Z,4.07
2019-01-08T08:52:56.042Z,2.70
2019-01-08T08:55:24.493Z,3.73
2019-01-08T08:57:52.945Z,2.70
2019-01-08T09:00:21.386Z,3.33
2019-01-08T09:02:49.835Z,3.20
2019-01-08T09:05:18.287Z,12.67
2019-01-08T09:07:46.751Z,2.90
2019-01-08T09:10:15.179Z,3.10
2019-01-08T09:12:43.646Z,3.40
2019-01-08T09:15:12.082Z,2.80
2019-01-08T09:17:40.529Z,3.50
2019-01-08T09:20:10.126Z,3.37
2019-01-08T09:22:38.636Z,2.70
2019-01-08T09:25:07.638Z,3.20
2019-01-08T09:27:36.082Z,3.67
2019-01-08T09:30:07.071Z,3.10
2019-01-08T09:32:35.509Z,3.30
2019-01-08T09:35:04.319Z,3.23
2019-01-08T09:37:32.753Z,4.00
2019-01-08T09:40:01.198Z,3.23
2019-01-08T09:42:29.628Z,3.77
2019-01-08T09:44:58.077Z,3.53
2019-01-08T09:47:26.510Z,3.23
2019-01-08T09:49:54.959Z,3.77
2019-01-08T09:52:23.393Z,3.87
2019-01-08T09:54:51.835Z,2.70
2019-01-08T09:57:20.254Z,2.73
2019-01-08T09:59:48.702Z,3.10
2019-01-08T10:02:17.157Z,3.30
2019-01-08T10:04:45.599Z,3.00
2019-01-08T10:07:14.032Z,2.73
2019-01-08T10:09:42.636Z,2.37
2019-01-08T10:12:11.072Z,2.33
2019-01-08T10:14:39.509Z,2.73
2019-01-08T10:17:07.973Z,2.73
2019-01-08T10:19:36.414Z,2.40
2019-01-08T10:22:04.849Z,2.30
2019-01-08T10:24:33.284Z,2.70
2019-01-08T10:27:01.738Z,2.83
2019-01-08T10:29:30.235Z,2.83
2019-01-08T10:31:58.735Z,2.63
2019-01-08T10:34:27.152Z,3.03
2019-01-08T10:36:55.634Z,2.90
2019-01-08T10:39:24.074Z,3.13
2019-01-08T10:41:52.528Z,2.23
2019-01-08T10:44:20.954Z,2.23
2019-01-08T10:46:49.404Z,2.77
2019-01-08T10:49:17.840Z,2.60
2019-01-08T10:51:46.288Z,2.70
2019-01-08T10:54:14.734Z,3.73
2019-01-08T10:56:43.173Z,2.50
2019-01-08T10:59:11.613Z,2.90
2019-01-08T11:01:40.830Z,3.40
2019-01-08T11:04:09.482Z,3.37
2019-01-08T11:06:37.951Z,2.87
2019-01-08T11:09:07.043Z,2.60
2019-01-08T11:11:35.493Z,2.43
2019-01-08T11:14:03.923Z,2.63
2019-01-08T11:16:32.388Z,2.50
2019-01-08T11:19:00.815Z,2.47
2019-01-08T11:21:29.343Z,2.87
2019-01-08T11:23:57.782Z,2.70
2019-01-08T11:26:26.252Z,2.27
2019-01-08T11:28:54.690Z,3.10
2019-01-08T11:31:23.144Z,3.07
2019-01-08T11:33:51.575Z,3.00
2019-01-08T11:36:20.020Z,3.13
2019-01-08T11:38:48.448Z,3.33
2019-01-08T11:41:16.902Z,3.17
2019-01-08T11:43:45.328Z,2.63
2019-01-08T11:46:13.782Z,3.30
2019-01-08T11:48:42.215Z,3.43
2019-01-08T11:51:10.666Z,3.07
2019-01-08T11:53:39.093Z,3.00
2019-01-08T11:56:07.771Z,2.67
2019-01-08T11:58:36.200Z,3.77
2019-01-08T12:01:04.655Z,2.40
2019-01-08T12:03:33.173Z,2.20
2019-01-08T12:06:01.601Z,1.83
2019-01-08T12:08:30.066Z,2.03
2019-01-08T12:10:58.526Z,1.70
2019-01-08T12:13:27.024Z,2.50
2019-01-08T12:15:55.431Z,2.57
2019-01-08T12:18:23.908Z,1.60
2019-01-08T12:20:52.336Z,1.90
2019-01-08T12:23:20.823Z,1.43
2019-01-08T12:25:49.279Z,3.03
2019-01-08T12:28:18.639Z,3.27
2019-01-08T12:30:47.078Z,3.00
2019-01-08T12:33:15.517Z,2.30
2019-01-08T12:35:43.952Z,2.17
2019-01-08T12:38:12.417Z,2.33
2019-01-08T12:40:40.855Z,1.93
2019-01-08T12:43:09.368Z,1.80
2019-01-08T12:45:37.815Z,1.90
2019-01-08T12:48:06.257Z,1.97
2019-01-08T12:50:34.708Z,2.00
2019-01-08T12:53:03.168Z,2.27
2019-01-08T12:55:31.625Z,2.20
2019-01-08T12:58:00.080Z,2.47
2019-01-08T13:00:28.523Z,1.83
2019-01-08T13:02:56.975Z,2.87
2019-01-08T13:05:25.398Z,2.43
2019-01-08T13:07:53.848Z,2.17
2019-01-08T13:10:22.742Z,3.17
2019-01-08T13:12:51.174Z,2.70
2019-01-08T13:15:19.606Z,2.40
2019-01-08T13:17:48.047Z,2.37
2019-01-08T13:20:16.490Z,2.60
2019-01-08T13:22:44.941Z,2.90
2019-01-08T13:25:13.459Z,2.40
2019-01-08T13:27:41.893Z,2.50
2019-01-08T13:30:10.377Z,2.93
2019-01-08T13:32:38.821Z,2.83
2019-01-08T13:35:07.301Z,3.00
2019-01-08T13:37:35.734Z,1.80
2019-01-08T13:40:04.919Z,2.07
2019-01-08T13:42:33.370Z,2.67
2019-01-08T13:45:01.833Z,2.17
2019-01-08T13:47:30.255Z,1.93
2019-01-08T13:49:58.702Z,2.37
2019-01-08T13:52:27.199Z,2.00
2019-01-08T13:54:55.715Z,2.83
2019-01-08T13:57:24.148Z,3.57
2019-01-08T13:59:52.603Z,3.27
2019-01-08T14:02:21.065Z,2.50
2019-01-08T14:04:49.516Z,1.77
2019-01-08T14:07:17.946Z,1.80
2019-01-08T14:09:46.387Z,2.17
2019-01-08T14:12:14.833Z,2.10
2019-01-08T14:14:44.108Z,2.13
2019-01-08T14:17:12.549Z,2.13
2019-01-08T14:19:41.000Z,1.63
2019-01-08T14:22:09.458Z,1.95
2019-01-08T14:24:37.909Z,1.93
2019-01-08T14:27:11.705Z,2.40
2019-01-08T14:29:36.527Z,1.77
2019-01-08T14:32:04.969Z,2.00
2019-01-08T14:34:33.408Z,1.17
2019-01-08T14:37:01.904Z,2.80
2019-01-08T14:39:30.402Z,1.90
2019-01-08T14:41:58.834Z,1.83
2019-01-08T14:44:27.272Z,2.60
2019-01-08T14:46:55.751Z,1.97
2019-01-08T14:49:24.164Z,2.37
2019-01-08T14:51:52.818Z,2.30
2019-01-08T14:54:21.256Z,2.40
2019-01-08T14:56:49.716Z,2.20
2019-01-08T14:59:18.157Z,1.80
2019-01-08T15:01:46.609Z,2.20
2019-01-08T15:04:15.039Z,1.93
2019-01-08T15:06:43.501Z,2.30
2019-01-08T15:09:11.928Z,2.10
2019-01-08T15:11:40.382Z,2.23
2019-01-08T15:14:08.831Z,2.37
2019-01-08T15:16:37.270Z,1.73
2019-01-08T15:19:05.704Z,2.43
2019-01-08T15:21:34.171Z,2.10
2019-01-08T15:24:02.597Z,2.20
2019-01-08T15:26:31.024Z,1.80
2019-01-08T15:28:59.481Z,1.93
2019-01-08T15:31:27.929Z,2.40
2019-01-08T15:33:56.379Z,3.13
2019-01-08T15:36:24.835Z,1.98
2019-01-08T15:38:53.305Z,2.63
2019-01-08T15:41:21.736Z,2.40
2019-01-08T15:43:51.747Z,2.80
2019-01-08T15:46:20.181Z,3.23
2019-01-08T15:48:48.634Z,3.13
2019-01-08T15:51:17.156Z,3.87
2019-01-08T15:53:45.722Z,4.10
2019-01-08T15:56:14.151Z,3.40
2019-01-08T15:58:42.621Z,3.17
2019-01-08T16:01:11.062Z,4.07
2019-01-08T16:03:39.526Z,3.37
2019-01-08T16:06:08.005Z,3.87
2019-01-08T16:08:36.463Z,3.80
2019-01-08T16:11:04.901Z,3.60
2019-01-08T16:13:33.349Z,3.27
2019-01-08T16:16:01.800Z,3.13
2019-01-08T16:18:30.275Z,3.80
2019-01-08T16:20:58.722Z,4.30
2019-01-08T16:23:27.150Z,3.77
2019-01-08T16:25:55.608Z,3.50
2019-01-08T16:28:24.091Z,3.43
2019-01-08T16:30:52.572Z,3.47
2019-01-08T16:33:21.020Z,7.93
2019-01-08T16:35:49.463Z,3.67
2019-01-08T16:38:17.946Z,4.07
2019-01-08T16:40:46.403Z,3.30
2019-01-08T16:43:14.863Z,3.73
2019-01-08T16:45:43.310Z,4.17
2019-01-08T16:48:11.778Z,3.43
2019-01-08T16:50:40.217Z,2.67
2019-01-08T16:53:08.687Z,1.72
2019-01-08T16:55:37.122Z,3.83
2019-01-08T16:58:05.583Z,2.70
2019-01-08T17:00:34.095Z,2.80
2019-01-08T17:03:02.537Z,3.62
2019-01-08T17:05:31.003Z,3.47
2019-01-08T17:07:59.575Z,2.98
2019-01-08T17:10:28.034Z,2.33
2019-01-08T17:12:56.473Z,2.52
2019-01-08T17:15:24.943Z,3.00
2019-01-08T17:17:53.413Z,2.27
2019-01-08T17:20:21.884Z,2.30
2019-01-08T17:22:50.325Z,3.20
2019-01-08T17:25:18.774Z,3.25
2019-01-08T17:27:47.229Z,2.10
2019-01-08T17:30:15.690Z,2.70
2019-01-08T17:32:44.132Z,3.12
2019-01-08T17:35:12.578Z,2.80
2019-01-08T17:37:41.010Z,2.10
2019-01-08T17:40:09.472Z,2.30
2019-01-08T17:42:37.960Z,2.67
2019-01-08T17:45:09.234Z,2.33
2019-01-08T17:47:37.673Z,2.15
2019-01-08T17:50:06.970Z,2.75
2019-01-08T17:52:35.421Z,1.95
2019-01-08T17:55:03.924Z,2.67
2019-01-08T17:57:32.382Z,2.47
2019-01-08T18:00:00.855Z,2.70
2019-01-08T18:02:29.301Z,2.22
2019-01-08T18:04:57.771Z,2.92
2019-01-08T18:07:26.224Z,2.80
2019-01-08T18:09:54.715Z,2.37
2019-01-08T18:12:23.148Z,2.90
2019-01-08T18:14:52.064Z,2.27
2019-01-08T18:17:20.556Z,1.90
2019-01-08T18:19:49.054Z,2.70
2019-01-08T18:22:17.900Z,2.87
2019-01-08T18:24:46.362Z,2.45
2019-01-08T18:27:14.838Z,2.47
2019-01-08T18:29:43.264Z,1.90
2019-01-08T18:32:11.723Z,2.60
2019-01-08T18:34:40.186Z,2.30
2019-01-08T18:37:08.626Z,2.60
2019-01-08T18:39:37.081Z,2.37
2019-01-08T18:42:05.545Z,2.10
2019-01-08T18:44:33.993Z,2.20
2019-01-08T18:47:02.460Z,2.37
2019-01-08T18:49:30.920Z,2.55
2019-01-08T18:51:59.394Z,2.42
2019-01-08T18:54:28.263Z,2.17
2019-01-08T18:56:56.814Z,2.00
2019-01-08T18:59:25.274Z,2.12
2019-01-08T19:01:53.899Z,2.22
2019-01-08T19:04:22.374Z,5.78
2019-01-08T19:06:50.851Z,3.00
2019-01-08T19:09:25.054Z,2.62
2019-01-08T19:11:53.962Z,2.87
2019-01-08T19:14:25.547Z,2.92
2019-01-08T19:16:54.036Z,3.27
2019-01-08T19:19:22.812Z,3.17
2019-01-08T19:21:51.301Z,2.65
2019-01-08T19:24:19.757Z,3.00
2019-01-08T19:26:48.227Z,2.83
2019-01-08T19:29:16.676Z,2.55
2019-01-08T19:31:45.153Z,3.22
2019-01-08T19:34:13.625Z,2.70
2019-01-08T19:36:43.623Z,2.33
2019-01-08T19:39:12.148Z,2.52
2019-01-08T19:41:40.632Z,2.50
2019-01-08T19:44:09.081Z,2.20
2019-01-08T19:46:37.579Z,2.62
2019-01-08T19:49:06.084Z,2.25
2019-01-08T19:51:34.575Z,2.02
2019-01-08T19:54:03.064Z,2.75
2019-01-08T19:56:31.525Z,2.92
2019-01-08T19:59:00.001Z,3.00
2019-01-08T20:01:28.474Z,3.30
2019-01-08T20:03:56.949Z,2.83
2019-01-08T20:06:25.967Z,2.52
2019-01-08T20:08:54.453Z,2.60
2019-01-08T20:11:22.923Z,2.45
2019-01-08T20:13:51.759Z,2.47
2019-01-08T20:16:20.222Z,2.80
2019-01-08T20:18:48.714Z,2.45
2019-01-08T20:21:17.205Z,2.83
2019-01-08T20:23:45.660Z,2.55
2019-01-08T20:26:14.118Z,2.27
2019-01-08T20:28:42.602Z,2.50
2019-01-08T20:31:11.077Z,2.42
2019-01-08T20:33:39.577Z,2.80
2019-01-08T20:36:08.046Z,2.37
2019-01-08T20:38:36.833Z,2.40
2019-01-08T20:41:05.299Z,2.12
2019-01-08T20:43:33.782Z,2.20
2019-01-08T20:46:04.597Z,2.15
2019-01-08T20:48:33.072Z,2.37
2019-01-08T20:51:01.591Z,2.25
2019-01-08T20:53:33.547Z,2.00
2019-01-08T20:56:02.031Z,2.10
2019-01-08T20:58:31.805Z,2.47
2019-01-08T21:01:00.331Z,5.10
2019-01-08T21:03:28.803Z,2.52
2019-01-08T21:05:57.303Z,2.67
2019-01-08T21:08:25.776Z,2.60
2019-01-08T21:10:55.843Z,1.92
2019-01-08T21:13:24.311Z,3.30
2019-01-08T21:15:52.794Z,2.85
2019-01-08T21:18:21.273Z,2.30
2019-01-08T21:20:49.763Z,2.50
2019-01-08T21:23:18.377Z,2.47
2019-01-08T21:25:46.851Z,3.50
2019-01-08T21:28:16.351Z,2.42
2019-01-08T21:30:46.887Z,2.25
2019-01-08T21:33:15.376Z,3.75
2019-01-08T21:35:44.178Z,1.92
2019-01-08T21:38:12.709Z,2.65
2019-01-08T21:40:41.177Z,2.77
2019-01-08T21:43:09.646Z,2.52
2019-01-08T21:45:39.314Z,2.65
2019-01-08T21:48:07.786Z,2.85
2019-01-08T21:50:36.272Z,2.60
2019-01-08T21:53:04.827Z,2.50
2019-01-08T21:55:34.864Z,2.50
2019-01-08T21:58:03.312Z,2.65
2019-01-08T22:00:31.788Z,3.15
2019-01-08T22:03:01.126Z,3.22
2019-01-08T22:05:29.629Z,2.75
2019-01-08T22:07:58.066Z,2.45
2019-01-08T22:10:26.543Z,2.50
2019-01-08T22:12:55.012Z,2.62
2019-01-08T22:15:23.490Z,1.98
2019-01-08T22:17:51.933Z,1.90
2019-01-08T22:20:22.795Z,2.50
2019-01-08T22:22:52.699Z,2.00
2019-01-08T22:25:21.507Z,2.50
2019-01-08T22:27:49.998Z,2.40
2019-01-08T22:30:18.453Z,4.22
2019-01-08T22:32:46.954Z,2.00
2019-01-08T22:35:15.379Z,1.80
2019-01-08T22:37:43.841Z,2.05
2019-01-08T22:40:12.349Z,1.95
2019-01-08T22:42:40.797Z,1.40
2019-01-08T22:45:09.240Z,2.08
2019-01-08T22:47:37.699Z,2.37
2019-01-08T22:50:07.781Z,1.70
2019-01-08T22:52:36.247Z,1.90
2019-01-08T22:55:05.072Z,1.85
2019-01-08T22:57:33.534Z,1.72
2019-01-08T23:00:01.977Z,1.55
2019-01-08T23:02:30.865Z,1.32
2019-01-08T23:04:59.463Z,1.30
2019-01-08T23:07:27.920Z,1.95
2019-01-08T23:09:56.360Z,1.52
2019-01-08T23:12:24.985Z,1.95
2019-01-08T23:14:53.417Z,1.55
2019-01-08T23:17:21.867Z,1.70
2019-01-08T23:19:50.321Z,1.47
2019-01-08T23:22:18.765Z,1.70
2019-01-08T23:24:47.228Z,1.50
2019-01-08T23:27:15.655Z,1.57
2019-01-08T23:29:44.101Z,1.72
2019-01-08T23:32:12.544Z,1.50
2019-01-08T23:34:41.027Z,1.67
2019-01-08T23:37:09.505Z,1.47
2019-01-08T23:39:37.936Z,1.60
2019-01-08T23:42:06.372Z,1.20
2019-01-08T23:44:34.821Z,1.02
2019-01-08T23:47:03.261Z,1.15
2019-01-08T23:49:31.711Z,1.60
2019-01-08T23:52:03.240Z,1.65
2019-01-08T23:54:34.181Z,1.10
2019-01-08T23:57:04.149Z,1.47
2019-01-08T23:59:32.612Z,1.37
